sensor_id;sensor_type;location;lat;lon;timestamp;pressure;altitude;pressure_sealevel;temperature;humidity
28911;BME280;16028;42.642;23.310;2022-10-26T00:02:21;94465.72;;;17.26;62.96
28911;BME280;16028;42.642;23.310;2022-10-26T00:04:48;94467.41;;;17.19;63.08
28911;BME280;16028;42.642;23.310;2022-10-26T00:07:14;94462.56;;;17.08;63.52
28911;BME280;16028;42.642;23.310;2022-10-26T00:09:43;94459.69;;;17.17;63.15
28911;BME280;16028;42.642;23.310;2022-10-26T00:12:09;94455.97;;;17.12;63.23
28911;BME280;16028;42.642;23.310;2022-10-26T00:14:36;94456.31;;;17.09;63.06
28911;BME280;16028;42.642;23.310;2022-10-26T00:17:03;94471.44;;;17.07;62.52
28911;BME280;16028;42.642;23.310;2022-10-26T00:19:32;94462.16;;;16.96;63.60
28911;BME280;16028;42.642;23.310;2022-10-26T00:21:59;94466.44;;;16.97;63.50
28911;BME280;16028;42.642;23.310;2022-10-26T00:24:26;94470.03;;;16.96;63.67
28911;BME280;16028;42.642;23.310;2022-10-26T00:26:54;94463.03;;;16.88;63.93
28911;BME280;16028;42.642;23.310;2022-10-26T00:29:21;94460.09;;;16.83;64.00
28911;BME280;16028;42.642;23.310;2022-10-26T00:31:47;94467.81;;;16.85;63.43
28911;BME280;16028;42.642;23.310;2022-10-26T00:34:14;94460.09;;;16.83;63.43
28911;BME280;16028;42.642;23.310;2022-10-26T00:36:41;94475.13;;;16.75;64.04
28911;BME280;16028;42.642;23.310;2022-10-26T00:39:11;94466.28;;;16.68;64.57
28911;BME280;16028;42.642;23.310;2022-10-26T00:41:39;94468.38;;;16.72;64.99
28911;BME280;16028;42.642;23.310;2022-10-26T00:47:15;94465.47;;;16.67;64.28
28911;BME280;16028;42.642;23.310;2022-10-26T00:49:44;94460.69;;;16.71;63.59
28911;BME280;16028;42.642;23.310;2022-10-26T00:52:13;94462.97;;;16.74;63.93
28911;BME280;16028;42.642;23.310;2022-10-26T00:54:42;94458.53;;;16.74;63.62
28911;BME280;16028;42.642;23.310;2022-10-26T00:57:10;94454.09;;;16.75;63.74
28911;BME280;16028;42.642;23.310;2022-10-26T00:59:37;94454.97;;;16.59;64.37
28911;BME280;16028;42.642;23.310;2022-10-26T01:02:05;94451.22;;;16.62;64.38
28911;BME280;16028;42.642;23.310;2022-10-26T01:04:33;94449.06;;;16.65;64.43
28911;BME280;16028;42.642;23.310;2022-10-26T01:07:00;94450.53;;;16.68;64.03
28911;BME280;16028;42.642;23.310;2022-10-26T01:09:29;94447.34;;;16.72;63.71
28911;BME280;16028;42.642;23.310;2022-10-26T01:11:57;94438.44;;;16.59;63.81
28911;BME280;16028;42.642;23.310;2022-10-26T01:14:26;94444.84;;;16.48;63.92
28911;BME280;16028;42.642;23.310;2022-10-26T01:16:59;94443.69;;;16.51;63.73
28911;BME280;16028;42.642;23.310;2022-10-26T01:19:57;94441.59;;;16.46;63.77
28911;BME280;16028;42.642;23.310;2022-10-26T01:22:35;94431.03;;;16.54;62.74
28911;BME280;16028;42.642;23.310;2022-10-26T01:25:14;94437.78;;;16.49;62.67
28911;BME280;16028;42.642;23.310;2022-10-26T01:27:44;94439.25;;;16.51;62.41
28911;BME280;16028;42.642;23.310;2022-10-26T01:30:22;94439.25;;;16.51;62.43
28911;BME280;16028;42.642;23.310;2022-10-26T01:33:08;94446.66;;;16.56;62.48
28911;BME280;16028;42.642;23.310;2022-10-26T01:35:41;94446.31;;;16.51;62.93
28911;BME280;16028;42.642;23.310;2022-10-26T01:38:16;94446.16;;;16.52;62.35
28911;BME280;16028;42.642;23.310;2022-10-26T01:40:50;94438.97;;;16.46;63.29
28911;BME280;16028;42.642;23.310;2022-10-26T01:43:20;94441.41;;;16.48;63.44
28911;BME280;16028;42.642;23.310;2022-10-26T01:45:50;94436.22;;;16.39;63.75
28911;BME280;16028;42.642;23.310;2022-10-26T01:48:19;94427.50;;;16.39;63.46
28911;BME280;16028;42.642;23.310;2022-10-26T01:50:52;94429.59;;;16.43;63.38
28911;BME280;16028;42.642;23.310;2022-10-26T01:53:20;94423.59;;;16.35;64.24
28911;BME280;16028;42.642;23.310;2022-10-26T01:55:48;94424.88;;;16.39;63.83
28911;BME280;16028;42.642;23.310;2022-10-26T02:02:10;94414.78;;;16.51;63.12
28911;BME280;16028;42.642;23.310;2022-10-26T02:04:47;94422.84;;;16.57;62.39
28911;BME280;16028;42.642;23.310;2022-10-26T02:07:25;94424.81;;;16.55;62.82
28911;BME280;16028;42.642;23.310;2022-10-26T02:09:58;94424.94;;;16.62;62.57
28911;BME280;16028;42.642;23.310;2022-10-26T02:12:32;94424.63;;;16.57;62.64
28911;BME280;16028;42.642;23.310;2022-10-26T02:15:06;94421.38;;;16.55;62.90
28911;BME280;16028;42.642;23.310;2022-10-26T02:17:43;94422.84;;;16.57;62.59
28911;BME280;16028;42.642;23.310;2022-10-26T02:20:16;94430.06;;;16.55;62.37
28911;BME280;16028;42.642;23.310;2022-10-26T02:22:46;94429.38;;;16.53;63.00
28911;BME280;16028;42.642;23.310;2022-10-26T02:25:17;94437.94;;;16.47;63.57
28911;BME280;16028;42.642;23.310;2022-10-26T02:27:49;94429.66;;;16.35;64.03
28911;BME280;16028;42.642;23.310;2022-10-26T02:30:17;94443.59;;;16.36;63.98
28911;BME280;16028;42.642;23.310;2022-10-26T02:32:47;94434.44;;;16.32;64.07
28911;BME280;16028;42.642;23.310;2022-10-26T02:35:18;94432.66;;;16.24;64.48
28911;BME280;16028;42.642;23.310;2022-10-26T02:37:47;94433.19;;;16.20;64.46
28911;BME280;16028;42.642;23.310;2022-10-26T02:40:18;94440.22;;;16.19;64.22
28911;BME280;16028;42.642;23.310;2022-10-26T02:42:46;94434.84;;;16.13;64.50
28911;BME280;16028;42.642;23.310;2022-10-26T02:45:18;94431.75;;;16.09;65.15
28911;BME280;16028;42.642;23.310;2022-10-26T02:47:48;94437.94;;;16.16;64.88
28911;BME280;16028;42.642;23.310;2022-10-26T02:50:15;94436.00;;;16.10;65.42
28911;BME280;16028;42.642;23.310;2022-10-26T02:52:48;94435.88;;;16.04;65.64
28911;BME280;16028;42.642;23.310;2022-10-26T02:55:20;94438.34;;;15.97;66.17
28911;BME280;16028;42.642;23.310;2022-10-26T02:57:52;94442.16;;;15.95;66.29
28911;BME280;16028;42.642;23.310;2022-10-26T03:00:20;94441.81;;;15.89;66.50
28911;BME280;16028;42.642;23.310;2022-10-26T03:02:53;94436.09;;;15.86;66.74
28911;BME280;16028;42.642;23.310;2022-10-26T03:05:23;94440.53;;;15.85;66.44
28911;BME280;16028;42.642;23.310;2022-10-26T03:07:51;94446.78;;;15.76;67.11
28911;BME280;16028;42.642;23.310;2022-10-26T03:10:18;94442.19;;;15.78;67.18
28911;BME280;16028;42.642;23.310;2022-10-26T03:12:44;94452.53;;;15.72;67.38
28911;BME280;16028;42.642;23.310;2022-10-26T03:15:11;94461.41;;;15.63;67.86
28911;BME280;16028;42.642;23.310;2022-10-26T03:17:38;94457.66;;;15.49;68.53
28911;BME280;16028;42.642;23.310;2022-10-26T03:20:07;94466.81;;;15.37;69.11
28911;BME280;16028;42.642;23.310;2022-10-26T03:22:34;94472.88;;;15.29;69.53
28911;BME280;16028;42.642;23.310;2022-10-26T03:25:01;94485.66;;;15.24;69.83
28911;BME280;16028;42.642;23.310;2022-10-26T03:27:28;94486.97;;;15.20;70.27
28911;BME280;16028;42.642;23.310;2022-10-26T03:29:55;94490.41;;;15.13;70.66
28911;BME280;16028;42.642;23.310;2022-10-26T03:32:22;94488.75;;;15.04;71.34
28911;BME280;16028;42.642;23.310;2022-10-26T03:34:48;94485.78;;;14.91;72.01
28911;BME280;16028;42.642;23.310;2022-10-26T03:37:16;94491.84;;;14.83;72.39
28911;BME280;16028;42.642;23.310;2022-10-26T03:39:43;94491.19;;;14.73;73.01
28911;BME280;16028;42.642;23.310;2022-10-26T03:42:10;94487.41;;;14.67;73.40
28911;BME280;16028;42.642;23.310;2022-10-26T03:44:37;94483.78;;;14.68;73.53
28911;BME280;16028;42.642;23.310;2022-10-26T03:47:03;94489.66;;;14.62;74.02
28911;BME280;16028;42.642;23.310;2022-10-26T03:49:30;94493.91;;;14.55;74.28
28911;BME280;16028;42.642;23.310;2022-10-26T03:51:57;94496.50;;;14.47;74.73
28911;BME280;16028;42.642;23.310;2022-10-26T03:54:25;94497.66;;;14.45;74.88
28911;BME280;16028;42.642;23.310;2022-10-26T03:56:52;94490.25;;;14.40;75.59
28911;BME280;16028;42.642;23.310;2022-10-26T03:59:18;94498.22;;;14.30;76.04
28911;BME280;16028;42.642;23.310;2022-10-26T04:01:45;94491.31;;;14.21;77.04
28911;BME280;16028;42.642;23.310;2022-10-26T04:04:12;94489.47;;;14.14;77.56
28911;BME280;16028;42.642;23.310;2022-10-26T04:06:39;94491.28;;;14.13;78.55
28911;BME280;16028;42.642;23.310;2022-10-26T04:09:05;94489.97;;;14.09;78.20
28911;BME280;16028;42.642;23.310;2022-10-26T04:11:33;94494.03;;;14.04;78.20
28911;BME280;16028;42.642;23.310;2022-10-26T04:14:00;94492.22;;;14.04;77.92
28911;BME280;16028;42.642;23.310;2022-10-26T04:16:27;94490.59;;;14.03;78.31
28911;BME280;16028;42.642;23.310;2022-10-26T04:18:54;94495.13;;;14.01;78.88
28911;BME280;16028;42.642;23.310;2022-10-26T04:21:21;94495.81;;;14.03;79.25
28911;BME280;16028;42.642;23.310;2022-10-26T04:23:47;94499.59;;;14.09;79.40
28911;BME280;16028;42.642;23.310;2022-10-26T04:26:14;94498.00;;;14.16;79.17
28911;BME280;16028;42.642;23.310;2022-10-26T04:28:42;94495.41;;;14.24;79.24
28911;BME280;16028;42.642;23.310;2022-10-26T04:31:09;94496.41;;;14.31;79.09
28911;BME280;16028;42.642;23.310;2022-10-26T04:33:36;94496.66;;;14.38;78.71
28911;BME280;16028;42.642;23.310;2022-10-26T04:36:03;94498.81;;;14.42;78.39
28911;BME280;16028;42.642;23.310;2022-10-26T04:38:29;94498.63;;;14.44;78.07
28911;BME280;16028;42.642;23.310;2022-10-26T04:40:56;94498.94;;;14.41;78.13
28911;BME280;16028;42.642;23.310;2022-10-26T04:43:23;94503.53;;;14.39;78.76
28911;BME280;16028;42.642;23.310;2022-10-26T04:45:55;94503.53;;;14.39;78.36
28911;BME280;16028;42.642;23.310;2022-10-26T04:48:24;94505.63;;;14.35;78.80
28911;BME280;16028;42.642;23.310;2022-10-26T04:50:51;94507.22;;;14.28;79.73
28911;BME280;16028;42.642;23.310;2022-10-26T04:53:18;94505.06;;;14.23;79.43
28911;BME280;16028;42.642;23.310;2022-10-26T04:55:44;94510.47;;;14.30;79.01
28911;BME280;16028;42.642;23.310;2022-10-26T04:58:11;94512.13;;;14.31;78.50
28911;BME280;16028;42.642;23.310;2022-10-26T05:00:38;94519.97;;;14.31;79.29
28911;BME280;16028;42.642;23.310;2022-10-26T05:03:06;94516.53;;;14.30;79.38
28911;BME280;16028;42.642;23.310;2022-10-26T05:05:35;94517.03;;;14.26;80.12
28911;BME280;16028;42.642;23.310;2022-10-26T05:08:02;94518.31;;;14.22;80.26
28911;BME280;16028;42.642;23.310;2022-10-26T05:10:29;94511.75;;;14.18;80.26
28911;BME280;16028;42.642;23.310;2022-10-26T05:12:58;94524.38;;;14.22;80.88
28911;BME280;16028;42.642;23.310;2022-10-26T05:15:25;94521.56;;;14.24;80.85
28911;BME280;16028;42.642;23.310;2022-10-26T05:17:56;94516.50;;;14.22;81.01
28911;BME280;16028;42.642;23.310;2022-10-26T05:20:25;94525.19;;;14.23;81.07
28911;BME280;16028;42.642;23.310;2022-10-26T05:22:54;94517.16;;;14.24;81.14
28911;BME280;16028;42.642;23.310;2022-10-26T05:25:21;94513.59;;;14.25;81.42
28911;BME280;16028;42.642;23.310;2022-10-26T05:27:48;94518.81;;;14.25;81.56
28911;BME280;16028;42.642;23.310;2022-10-26T05:30:15;94523.97;;;14.35;81.85
28911;BME280;16028;42.642;23.310;2022-10-26T05:32:42;94528.66;;;14.31;81.80
28911;BME280;16028;42.642;23.310;2022-10-26T05:35:08;94532.09;;;14.32;81.88
28911;BME280;16028;42.642;23.310;2022-10-26T05:37:36;94534.56;;;14.34;81.85
28911;BME280;16028;42.642;23.310;2022-10-26T05:40:04;94542.09;;;14.37;82.54
28911;BME280;16028;42.642;23.310;2022-10-26T05:42:31;94547.03;;;14.40;82.26
28911;BME280;16028;42.642;23.310;2022-10-26T05:44:58;94543.44;;;14.41;82.55
28911;BME280;16028;42.642;23.310;2022-10-26T05:47:24;94546.72;;;14.43;82.52
28911;BME280;16028;42.642;23.310;2022-10-26T05:49:51;94553.94;;;14.49;82.58
28911;BME280;16028;42.642;23.310;2022-10-26T05:52:18;94554.28;;;14.54;82.57
28911;BME280;16028;42.642;23.310;2022-10-26T05:54:46;94560.88;;;14.58;82.25
28911;BME280;16028;42.642;23.310;2022-10-26T05:57:13;94562.03;;;14.63;82.25
28911;BME280;16028;42.642;23.310;2022-10-26T05:59:40;94575.44;;;14.60;82.13
28911;BME280;16028;42.642;23.310;2022-10-26T06:02:16;94561.97;;;14.55;82.15
28911;BME280;16028;42.642;23.310;2022-10-26T06:04:45;94576.88;;;14.55;82.47
28911;BME280;16028;42.642;23.310;2022-10-26T06:07:14;94570.81;;;14.54;82.95
28911;BME280;16028;42.642;23.310;2022-10-26T06:09:42;94571.03;;;14.61;82.67
28911;BME280;16028;42.642;23.310;2022-10-26T06:12:12;94572.31;;;14.65;82.38
28911;BME280;16028;42.642;23.310;2022-10-26T06:14:40;94573.66;;;14.69;82.61
28911;BME280;16028;42.642;23.310;2022-10-26T06:17:17;94578.56;;;14.72;82.53
28911;BME280;16028;42.642;23.310;2022-10-26T06:20:00;94585.66;;;14.79;82.41
28911;BME280;16028;42.642;23.310;2022-10-26T06:22:41;94582.38;;;14.86;82.27
28911;BME280;16028;42.642;23.310;2022-10-26T06:25:21;94583.41;;;14.93;81.74
28911;BME280;16028;42.642;23.310;2022-10-26T06:27:58;94583.59;;;14.99;81.61
28911;BME280;16028;42.642;23.310;2022-10-26T06:30:27;94583.41;;;15.01;81.72
28911;BME280;16028;42.642;23.310;2022-10-26T06:32:53;94586.72;;;15.03;81.77
28911;BME280;16028;42.642;23.310;2022-10-26T06:35:31;94585.22;;;15.08;81.83
28911;BME280;16028;42.642;23.310;2022-10-26T06:38:04;94590.81;;;15.13;81.21
28911;BME280;16028;42.642;23.310;2022-10-26T06:40:35;94592.97;;;15.18;80.88
28911;BME280;16028;42.642;23.310;2022-10-26T06:43:08;94596.56;;;15.25;80.45
28911;BME280;16028;42.642;23.310;2022-10-26T06:45:40;94584.25;;;15.25;80.48
28911;BME280;16028;42.642;23.310;2022-10-26T06:48:14;94591.97;;;15.35;79.62
28911;BME280;16028;42.642;23.310;2022-10-26T06:50:45;94589.03;;;15.38;79.37
28911;BME280;16028;42.642;23.310;2022-10-26T06:53:20;94585.44;;;15.39;78.98
28911;BME280;16028;42.642;23.310;2022-10-26T06:55:49;94597.75;;;15.47;78.54
28911;BME280;16028;42.642;23.310;2022-10-26T06:58:18;94600.72;;;15.52;78.35
28911;BME280;16028;42.642;23.310;2022-10-26T07:00:48;94595.00;;;15.56;77.83
28911;BME280;16028;42.642;23.310;2022-10-26T07:03:15;94597.13;;;15.61;77.42
28911;BME280;16028;42.642;23.310;2022-10-26T07:05:42;94604.84;;;15.62;77.77
28911;BME280;16028;42.642;23.310;2022-10-26T07:08:10;94603.19;;;15.61;78.24
28911;BME280;16028;42.642;23.310;2022-10-26T07:10:37;94616.00;;;15.72;77.36
28911;BME280;16028;42.642;23.310;2022-10-26T07:13:04;94610.75;;;15.72;77.40
28911;BME280;16028;42.642;23.310;2022-10-26T07:15:33;94611.25;;;15.76;77.82
28911;BME280;16028;42.642;23.310;2022-10-26T07:18:02;94611.06;;;15.77;77.85
28911;BME280;16028;42.642;23.310;2022-10-26T07:20:30;94615.00;;;15.81;77.81
28911;BME280;16028;42.642;23.310;2022-10-26T07:22:57;94604.50;;;15.89;76.70
28911;BME280;16028;42.642;23.310;2022-10-26T07:25:25;94609.41;;;15.93;76.08
28911;BME280;16028;42.642;23.310;2022-10-26T07:27:55;94601.22;;;15.87;76.61
28911;BME280;16028;42.642;23.310;2022-10-26T07:30:22;94610.06;;;15.86;76.45
28911;BME280;16028;42.642;23.310;2022-10-26T07:32:57;94611.06;;;15.85;76.49
28911;BME280;16028;42.642;23.310;2022-10-26T07:35:24;94596.78;;;15.80;77.20
28911;BME280;16028;42.642;23.310;2022-10-26T07:37:55;94599.75;;;15.93;76.51
28911;BME280;16028;42.642;23.310;2022-10-26T07:40:22;94597.94;;;15.94;77.25
28911;BME280;16028;42.642;23.310;2022-10-26T07:42:49;94596.97;;;15.95;77.72
28911;BME280;16028;42.642;23.310;2022-10-26T07:45:16;94604.31;;;15.99;77.26
28911;BME280;16028;42.642;23.310;2022-10-26T07:47:44;94601.69;;;16.07;75.88
28911;BME280;16028;42.642;23.310;2022-10-26T07:50:12;94604.16;;;16.09;76.15
28911;BME280;16028;42.642;23.310;2022-10-26T07:52:38;94598.91;;;16.17;75.60
28911;BME280;16028;42.642;23.310;2022-10-26T07:55:07;94593.94;;;16.22;74.88
28911;BME280;16028;42.642;23.310;2022-10-26T07:57:34;94595.44;;;16.16;75.11
28911;BME280;16028;42.642;23.310;2022-10-26T08:00:01;94592.81;;;16.16;75.69
28911;BME280;16028;42.642;23.310;2022-10-26T08:02:28;94590.69;;;16.20;75.78
28911;BME280;16028;42.642;23.310;2022-10-26T08:04:55;94586.75;;;16.24;75.67
28911;BME280;16028;42.642;23.310;2022-10-26T08:07:23;94596.41;;;16.31;75.45
28911;BME280;16028;42.642;23.310;2022-10-26T08:09:51;94595.91;;;16.36;75.10
28911;BME280;16028;42.642;23.310;2022-10-26T08:12:17;94595.56;;;16.39;74.22
28911;BME280;16028;42.642;23.310;2022-10-26T08:14:44;94592.75;;;16.40;73.76
28911;BME280;16028;42.642;23.310;2022-10-26T08:17:11;94593.59;;;16.41;74.51
28911;BME280;16028;42.642;23.310;2022-10-26T08:19:38;94594.06;;;16.53;74.40
28911;BME280;16028;42.642;23.310;2022-10-26T08:22:08;94599.63;;;16.50;75.06
28911;BME280;16028;42.642;23.310;2022-10-26T08:24:36;94602.59;;;16.55;74.08
28911;BME280;16028;42.642;23.310;2022-10-26T08:27:03;94601.94;;;16.61;73.91
28911;BME280;16028;42.642;23.310;2022-10-26T08:29:29;94588.94;;;16.67;74.03
28911;BME280;16028;42.642;23.310;2022-10-26T08:31:56;94592.00;;;16.79;72.96
28911;BME280;16028;42.642;23.310;2022-10-26T08:34:23;94589.91;;;16.74;73.16
28911;BME280;16028;42.642;23.310;2022-10-26T08:36:50;94592.69;;;16.73;73.29
28911;BME280;16028;42.642;23.310;2022-10-26T08:39:17;94585.47;;;16.75;73.46
28911;BME280;16028;42.642;23.310;2022-10-26T08:41:46;94590.88;;;16.81;72.96
28911;BME280;16028;42.642;23.310;2022-10-26T08:44:22;94589.38;;;16.79;73.84
28911;BME280;16028;42.642;23.310;2022-10-26T08:46:54;94591.44;;;16.91;72.23
28911;BME280;16028;42.642;23.310;2022-10-26T08:49:26;94587.69;;;16.94;72.14
28911;BME280;16028;42.642;23.310;2022-10-26T08:51:59;94591.72;;;17.05;71.15
28911;BME280;16028;42.642;23.310;2022-10-26T08:54:34;94604.16;;;17.11;70.61
28911;BME280;16028;42.642;23.310;2022-10-26T08:57:13;94605.19;;;17.10;71.00
28911;BME280;16028;42.642;23.310;2022-10-26T08:59:46;94602.84;;;17.15;70.09
28911;BME280;16028;42.642;23.310;2022-10-26T09:02:16;94600.69;;;17.18;70.50
28911;BME280;16028;42.642;23.310;2022-10-26T09:04:43;94600.47;;;17.28;69.81
28911;BME280;16028;42.642;23.310;2022-10-26T09:07:17;94596.16;;;17.35;68.90
28911;BME280;16028;42.642;23.310;2022-10-26T09:09:55;94603.16;;;17.42;67.41
28911;BME280;16028;42.642;23.310;2022-10-26T09:12:28;94595.69;;;17.54;66.24
28911;BME280;16028;42.642;23.310;2022-10-26T09:15:07;94601.28;;;17.59;65.39
28911;BME280;16028;42.642;23.310;2022-10-26T09:17:44;94598.59;;;17.67;65.05
28911;BME280;16028;42.642;23.310;2022-10-26T09:20:23;94604.50;;;17.69;65.69
28911;BME280;16028;42.642;23.310;2022-10-26T09:22:58;94595.63;;;17.70;66.57
28911;BME280;16028;42.642;23.310;2022-10-26T09:25:32;94593.50;;;17.66;65.53
28911;BME280;16028;42.642;23.310;2022-10-26T09:28:02;94592.78;;;17.72;66.01
28911;BME280;16028;42.642;23.310;2022-10-26T09:30:30;94594.34;;;17.81;63.95
28911;BME280;16028;42.642;23.310;2022-10-26T09:33:03;94600.66;;;17.94;62.41
28911;BME280;16028;42.642;23.310;2022-10-26T09:35:43;94594.31;;;17.89;63.73
28911;BME280;16028;42.642;23.310;2022-10-26T09:38:15;94598.47;;;17.83;64.17
28911;BME280;16028;42.642;23.310;2022-10-26T09:40:49;94597.09;;;17.87;61.45
28911;BME280;16028;42.642;23.310;2022-10-26T09:43:24;94592.13;;;17.92;60.29
28911;BME280;16028;42.642;23.310;2022-10-26T09:45:52;94588.78;;;17.98;61.32
28911;BME280;16028;42.642;23.310;2022-10-26T09:48:24;94581.63;;;18.07;60.84
28911;BME280;16028;42.642;23.310;2022-10-26T09:50:53;94580.81;;;18.07;61.85
28911;BME280;16028;42.642;23.310;2022-10-26T09:53:22;94581.72;;;18.14;60.25
28911;BME280;16028;42.642;23.310;2022-10-26T09:55:55;94585.66;;;18.18;60.12
28911;BME280;16028;42.642;23.310;2022-10-26T09:58:28;94585.19;;;18.14;61.13
28911;BME280;16028;42.642;23.310;2022-10-26T10:00:57;94577.75;;;18.18;60.76
28911;BME280;16028;42.642;23.310;2022-10-26T10:03:26;94571.94;;;18.22;59.23
28911;BME280;16028;42.642;23.310;2022-10-26T10:05:53;94570.88;;;18.31;57.95
28911;BME280;16028;42.642;23.310;2022-10-26T10:08:40;94567.41;;;18.31;59.74
28911;BME280;16028;42.642;23.310;2022-10-26T10:11:09;94572.69;;;18.45;59.12
28911;BME280;16028;42.642;23.310;2022-10-26T10:13:39;94564.31;;;18.42;60.40
28911;BME280;16028;42.642;23.310;2022-10-26T10:16:11;94564.97;;;18.44;61.12
28911;BME280;16028;42.642;23.310;2022-10-26T10:18:39;94563.91;;;18.53;59.55
28911;BME280;16028;42.642;23.310;2022-10-26T10:21:07;94559.97;;;18.64;58.71
28911;BME280;16028;42.642;23.310;2022-10-26T10:23:36;94556.81;;;18.68;57.96
28911;BME280;16028;42.642;23.310;2022-10-26T10:26:11;94557.06;;;18.73;57.64
28911;BME280;16028;42.642;23.310;2022-10-26T10:28:40;94551.25;;;18.78;58.75
28911;BME280;16028;42.642;23.310;2022-10-26T10:31:18;94563.06;;;18.82;57.90
28911;BME280;16028;42.642;23.310;2022-10-26T10:33:46;94553.34;;;18.82;57.48
28911;BME280;16028;42.642;23.310;2022-10-26T10:36:15;94544.25;;;18.85;57.27
28911;BME280;16028;42.642;23.310;2022-10-26T10:38:45;94546.13;;;18.91;56.46
28911;BME280;16028;42.642;23.310;2022-10-26T10:41:15;94551.94;;;18.86;57.45
28911;BME280;16028;42.642;23.310;2022-10-26T10:43:52;94547.94;;;18.90;58.31
28911;BME280;16028;42.642;23.310;2022-10-26T10:46:22;94547.03;;;18.98;60.09
28911;BME280;16028;42.642;23.310;2022-10-26T10:48:52;94540.91;;;19.12;57.23
28911;BME280;16028;42.642;23.310;2022-10-26T10:51:21;94539.31;;;19.18;57.31
28911;BME280;16028;42.642;23.310;2022-10-26T10:53:50;94531.84;;;19.21;57.13
28911;BME280;16028;42.642;23.310;2022-10-26T10:56:32;94531.94;;;19.28;57.17
28911;BME280;16028;42.642;23.310;2022-10-26T11:05:20;94512.78;;;19.83;58.69
28911;BME280;16028;42.642;23.310;2022-10-26T11:07:52;94514.13;;;20.00;59.19
28911;BME280;16028;42.642;23.310;2022-10-26T11:10:21;94510.03;;;19.97;57.00
28911;BME280;16028;42.642;23.310;2022-10-26T11:12:54;94507.53;;;19.89;57.86
28911;BME280;16028;42.642;23.310;2022-10-26T11:15:25;94514.31;;;19.98;54.92
28911;BME280;16028;42.642;23.310;2022-10-26T11:17:59;94508.63;;;20.01;57.39
28911;BME280;16028;42.642;23.310;2022-10-26T11:20:32;94507.34;;;20.19;53.67
28911;BME280;16028;42.642;23.310;2022-10-26T11:23:04;94509.56;;;20.15;53.49
28911;BME280;16028;42.642;23.310;2022-10-26T11:25:40;94505.47;;;20.13;53.33
28911;BME280;16028;42.642;23.310;2022-10-26T11:28:14;94507.25;;;20.05;53.60
28911;BME280;16028;42.642;23.310;2022-10-26T11:30:45;94506.09;;;20.15;52.07
28911;BME280;16028;42.642;23.310;2022-10-26T11:33:16;94507.47;;;20.11;53.56
28911;BME280;16028;42.642;23.310;2022-10-26T11:35:51;94505.53;;;20.19;50.81
28911;BME280;16028;42.642;23.310;2022-10-26T11:38:25;94503.50;;;20.21;50.88
28911;BME280;16028;42.642;23.310;2022-10-26T11:40:59;94498.81;;;20.23;50.92
28911;BME280;16028;42.642;23.310;2022-10-26T11:43:33;94488.75;;;20.33;50.61
28911;BME280;16028;42.642;23.310;2022-10-26T11:46:04;94489.19;;;20.37;49.05
28911;BME280;16028;42.642;23.310;2022-10-26T11:48:39;94492.81;;;20.29;50.13
28911;BME280;16028;42.642;23.310;2022-10-26T11:51:16;94494.28;;;20.38;48.65
28911;BME280;16028;42.642;23.310;2022-10-26T11:53:46;94496.56;;;20.48;46.98
28911;BME280;16028;42.642;23.310;2022-10-26T11:56:21;94487.19;;;20.45;47.89
28911;BME280;16028;42.642;23.310;2022-10-26T11:58:51;94479.75;;;20.62;46.25
28911;BME280;16028;42.642;23.310;2022-10-26T12:01:18;94476.28;;;20.62;47.74
28911;BME280;16028;42.642;23.310;2022-10-26T12:03:48;94484.69;;;20.78;45.54
28911;BME280;16028;42.642;23.310;2022-10-26T12:06:21;94475.34;;;20.82;47.65
28911;BME280;16028;42.642;23.310;2022-10-26T12:08:54;94484.94;;;20.90;45.81
28911;BME280;16028;42.642;23.310;2022-10-26T12:11:31;94479.88;;;20.95;46.39
28911;BME280;16028;42.642;23.310;2022-10-26T12:14:06;94480.91;;;21.07;44.28
28911;BME280;16028;42.642;23.310;2022-10-26T12:16:46;94474.81;;;21.06;43.82
28911;BME280;16028;42.642;23.310;2022-10-26T12:19:19;94473.19;;;21.05;43.83
28911;BME280;16028;42.642;23.310;2022-10-26T12:21:50;94478.25;;;21.07;43.22
28911;BME280;16028;42.642;23.310;2022-10-26T12:24:28;94476.44;;;21.07;43.59
28911;BME280;16028;42.642;23.310;2022-10-26T12:27:00;94477.66;;;21.05;44.07
28911;BME280;16028;42.642;23.310;2022-10-26T12:29:51;94475.63;;;21.07;43.23
28911;BME280;16028;42.642;23.310;2022-10-26T12:32:53;94475.84;;;21.05;43.57
28911;BME280;16028;42.642;23.310;2022-10-26T12:35:37;94475.63;;;21.07;44.16
28911;BME280;16028;42.642;23.310;2022-10-26T12:41:17;94472.84;;;21.22;42.81
28911;BME280;16028;42.642;23.310;2022-10-26T12:43:45;94480.53;;;21.10;44.16
28911;BME280;16028;42.642;23.310;2022-10-26T12:46:39;94478.72;;;21.10;43.66
28911;BME280;16028;42.642;23.310;2022-10-26T12:52:57;94480.16;;;21.26;42.61
28911;BME280;16028;42.642;23.310;2022-10-26T12:55:49;94478.75;;;21.24;42.57
28911;BME280;16028;42.642;23.310;2022-10-26T13:01:46;94482.59;;;21.15;41.61
28911;BME280;16028;42.642;23.310;2022-10-26T13:04:35;94479.91;;;21.08;41.12
28911;BME280;16028;42.642;23.310;2022-10-26T13:07:28;94483.97;;;21.04;41.03
28911;BME280;16028;42.642;23.310;2022-10-26T13:10:02;94488.81;;;21.00;40.82
28911;BME280;16028;42.642;23.310;2022-10-26T13:12:36;94487.66;;;21.09;39.84
28911;BME280;16028;42.642;23.310;2022-10-26T13:15:19;94490.72;;;21.13;39.51
28911;BME280;16028;42.642;23.310;2022-10-26T13:17:54;94492.78;;;21.11;39.25
28911;BME280;16028;42.642;23.310;2022-10-26T13:20:22;94490.88;;;21.05;38.89
28911;BME280;16028;42.642;23.310;2022-10-26T13:22:49;94490.72;;;21.13;39.24
28911;BME280;16028;42.642;23.310;2022-10-26T13:25:21;94489.91;;;21.19;37.69
28911;BME280;16028;42.642;23.310;2022-10-26T13:28:04;94490.31;;;21.16;38.11
28911;BME280;16028;42.642;23.310;2022-10-26T13:30:45;94490.75;;;21.26;38.28
28911;BME280;16028;42.642;23.310;2022-10-26T13:33:21;94495.66;;;21.29;38.25